sensor_id;sensor_type;location;lat;lon;timestamp;temperature;humidity
51884;DHT22;37915;53.254;6.598;2022-11-28T00:01:39;5.70;99.90
51884;DHT22;37915;53.254;6.598;2022-11-28T00:04:06;5.70;99.90
51884;DHT22;37915;53.254;6.598;2022-11-28T00:06:42;5.70;99.90
51884;DHT22;37915;53.254;6.598;2022-11-28T00:09:10;5.70;99.90
51884;DHT22;37915;53.254;6.598;2022-11-28T00:11:41;5.70;99.90
51884;DHT22;37915;53.254;6.598;2022-11-28T00:14:08;6.50;99.90
51884;DHT22;37915;53.254;6.598;2022-11-28T00:16:34;5.70;99.90
51884;DHT22;37915;53.254;6.598;2022-11-28T00:19:01;5.80;99.90
51884;DHT22;37915;53.254;6.598;2022-11-28T00:21:27;6.00;99.90
51884;DHT22;37915;53.254;6.598;2022-11-28T00:23:52;6.40;99.90
51884;DHT22;37915;53.254;6.598;2022-11-28T00:26:24;6.00;99.90
51884;DHT22;37915;53.254;6.598;2022-11-28T00:28:51;5.70;99.90
51884;DHT22;37915;53.254;6.598;2022-11-28T00:31:23;6.70;99.90
51884;DHT22;37915;53.254;6.598;2022-11-28T00:33:50;5.80;99.90
51884;DHT22;37915;53.254;6.598;2022-11-28T00:36:16;5.70;99.90
51884;DHT22;37915;53.254;6.598;2022-11-28T00:38:42;5.80;99.90
51884;DHT22;37915;53.254;6.598;2022-11-28T00:41:13;5.80;99.90
51884;DHT22;37915;53.254;6.598;2022-11-28T00:43:40;6.00;99.90
51884;DHT22;37915;53.254;6.598;2022-11-28T00:46:07;6.00;99.90
51884;DHT22;37915;53.254;6.598;2022-11-28T00:48:34;5.70;99.90
51884;DHT22;37915;53.254;6.598;2022-11-28T00:51:17;5.70;99.90
51884;DHT22;37915;53.254;6.598;2022-11-28T00:53:44;5.70;99.90
51884;DHT22;37915;53.254;6.598;2022-11-28T00:56:14;6.60;99.90
51884;DHT22;37915;53.254;6.598;2022-11-28T00:58:40;6.20;99.90
51884;DHT22;37915;53.254;6.598;2022-11-28T01:01:09;5.80;99.90
51884;DHT22;37915;53.254;6.598;2022-11-28T01:03:35;5.80;99.90
51884;DHT22;37915;53.254;6.598;2022-11-28T01:06:01;6.60;99.90
51884;DHT22;37915;53.254;6.598;2022-11-28T01:08:27;5.80;99.90
51884;DHT22;37915;53.254;6.598;2022-11-28T01:10:53;6.10;99.90
51884;DHT22;37915;53.254;6.598;2022-11-28T01:13:18;5.80;99.90
51884;DHT22;37915;53.254;6.598;2022-11-28T01:15:44;6.60;99.90
51884;DHT22;37915;53.254;6.598;2022-11-28T01:18:09;5.90;99.90
51884;DHT22;37915;53.254;6.598;2022-11-28T01:20:35;5.80;99.90
51884;DHT22;37915;53.254;6.598;2022-11-28T01:23:01;6.10;99.90
51884;DHT22;37915;53.254;6.598;2022-11-28T01:25:27;5.90;99.90
51884;DHT22;37915;53.254;6.598;2022-11-28T01:27:52;7.00;99.90
51884;DHT22;37915;53.254;6.598;2022-11-28T01:30:18;6.70;99.90
51884;DHT22;37915;53.254;6.598;2022-11-28T01:32:44;5.90;99.90
51884;DHT22;37915;53.254;6.598;2022-11-28T01:35:10;5.90;99.90
51884;DHT22;37915;53.254;6.598;2022-11-28T01:37:36;5.80;99.90
51884;DHT22;37915;53.254;6.598;2022-11-28T01:40:02;5.90;99.90
51884;DHT22;37915;53.254;6.598;2022-11-28T01:42:28;5.90;99.90
51884;DHT22;37915;53.254;6.598;2022-11-28T01:47:24;5.90;99.90
51884;DHT22;37915;53.254;6.598;2022-11-28T01:49:53;6.80;99.90
51884;DHT22;37915;53.254;6.598;2022-11-28T01:52:20;5.90;99.90
51884;DHT22;37915;53.254;6.598;2022-11-28T01:54:51;5.90;99.90
51884;DHT22;37915;53.254;6.598;2022-11-28T01:57:19;6.90;99.90
51884;DHT22;37915;53.254;6.598;2022-11-28T02:02:28;5.90;99.90
51884;DHT22;37915;53.254;6.598;2022-11-28T02:04:57;6.00;99.90
51884;DHT22;37915;53.254;6.598;2022-11-28T02:07:23;6.00;99.90
51884;DHT22;37915;53.254;6.598;2022-11-28T02:09:48;5.90;99.90
51884;DHT22;37915;53.254;6.598;2022-11-28T02:20:31;6.60;99.90
51884;DHT22;37915;53.254;6.598;2022-11-28T02:37:07;5.90;99.90
51884;DHT22;37915;53.254;6.598;2022-11-28T02:39:45;6.90;99.90
51884;DHT22;37915;53.254;6.598;2022-11-28T02:42:26;5.90;99.90
51884;DHT22;37915;53.254;6.598;2022-11-28T02:45:31;6.00;99.90
51884;DHT22;37915;53.254;6.598;2022-11-28T02:51:02;5.90;99.90
51884;DHT22;37915;53.254;6.598;2022-11-28T02:53:31;6.70;99.90
51884;DHT22;37915;53.254;6.598;2022-11-28T02:55:58;6.00;99.90
51884;DHT22;37915;53.254;6.598;2022-11-28T02:58:24;6.10;99.90
51884;DHT22;37915;53.254;6.598;2022-11-28T03:00:50;5.90;99.90
51884;DHT22;37915;53.254;6.598;2022-11-28T03:11:18;5.90;99.90
51884;DHT22;37915;53.254;6.598;2022-11-28T03:13:56;5.90;99.90
51884;DHT22;37915;53.254;6.598;2022-11-28T03:19:18;5.90;99.90
51884;DHT22;37915;53.254;6.598;2022-11-28T03:24:37;5.90;99.90
51884;DHT22;37915;53.254;6.598;2022-11-28T03:27:17;5.90;99.90
51884;DHT22;37915;53.254;6.598;2022-11-28T03:29:47;6.20;99.90
51884;DHT22;37915;53.254;6.598;2022-11-28T03:32:23;6.20;99.90
51884;DHT22;37915;53.254;6.598;2022-11-28T03:34:58;6.80;99.90
51884;DHT22;37915;53.254;6.598;2022-11-28T03:37:48;6.00;99.90
51884;DHT22;37915;53.254;6.598;2022-11-28T03:40:20;6.00;99.90
51884;DHT22;37915;53.254;6.598;2022-11-28T03:42:52;5.90;99.90
51884;DHT22;37915;53.254;6.598;2022-11-28T03:45:24;5.90;99.90
51884;DHT22;37915;53.254;6.598;2022-11-28T03:48:04;6.40;99.90
51884;DHT22;37915;53.254;6.598;2022-11-28T03:50:37;5.90;99.90
51884;DHT22;37915;53.254;6.598;2022-11-28T03:53:09;6.50;99.90
51884;DHT22;37915;53.254;6.598;2022-11-28T03:55:44;5.90;99.90
51884;DHT22;37915;53.254;6.598;2022-11-28T03:58:23;6.60;99.90
51884;DHT22;37915;53.254;6.598;2022-11-28T04:01:02;5.90;99.90
51884;DHT22;37915;53.254;6.598;2022-11-28T04:06:25;6.00;99.90
51884;DHT22;37915;53.254;6.598;2022-11-28T04:09:15;6.30;99.90
51884;DHT22;37915;53.254;6.598;2022-11-28T04:11:55;6.00;99.90
51884;DHT22;37915;53.254;6.598;2022-11-28T04:14:31;6.10;99.90
51884;DHT22;37915;53.254;6.598;2022-11-28T04:17:16;6.00;99.90
51884;DHT22;37915;53.254;6.598;2022-11-28T04:19:51;6.10;99.90
51884;DHT22;37915;53.254;6.598;2022-11-28T04:22:22;6.10;99.90
51884;DHT22;37915;53.254;6.598;2022-11-28T04:24:52;6.10;99.90
51884;DHT22;37915;53.254;6.598;2022-11-28T04:27:22;6.10;99.90
51884;DHT22;37915;53.254;6.598;2022-11-28T04:29:54;6.10;99.90
51884;DHT22;37915;53.254;6.598;2022-11-28T04:32:24;6.30;99.90
51884;DHT22;37915;53.254;6.598;2022-11-28T04:34:54;6.20;99.90
51884;DHT22;37915;53.254;6.598;2022-11-28T04:37:22;6.50;99.90
51884;DHT22;37915;53.254;6.598;2022-11-28T04:39:49;6.20;99.90
51884;DHT22;37915;53.254;6.598;2022-11-28T04:42:29;6.20;99.90
51884;DHT22;37915;53.254;6.598;2022-11-28T04:45:00;6.50;99.90
51884;DHT22;37915;53.254;6.598;2022-11-28T04:47:27;6.50;99.90
51884;DHT22;37915;53.254;6.598;2022-11-28T04:49:54;6.90;99.90
51884;DHT22;37915;53.254;6.598;2022-11-28T04:52:28;6.20;99.90
51884;DHT22;37915;53.254;6.598;2022-11-28T04:58:18;6.30;99.90
51884;DHT22;37915;53.254;6.598;2022-11-28T05:00:47;6.30;99.90
51884;DHT22;37915;53.254;6.598;2022-11-28T05:03:14;6.30;99.90
51884;DHT22;37915;53.254;6.598;2022-11-28T05:05:44;6.40;99.90
51884;DHT22;37915;53.254;6.598;2022-11-28T05:08:10;6.40;99.90
51884;DHT22;37915;53.254;6.598;2022-11-28T05:10:36;6.50;99.90
51884;DHT22;37915;53.254;6.598;2022-11-28T05:13:02;6.50;99.90
51884;DHT22;37915;53.254;6.598;2022-11-28T05:15:27;7.20;99.90
51884;DHT22;37915;53.254;6.598;2022-11-28T05:17:53;7.30;99.90
51884;DHT22;37915;53.254;6.598;2022-11-28T05:20:19;6.60;99.90
51884;DHT22;37915;53.254;6.598;2022-11-28T05:22:44;6.60;99.90
51884;DHT22;37915;53.254;6.598;2022-11-28T05:25:10;6.60;99.90
51884;DHT22;37915;53.254;6.598;2022-11-28T05:27:36;6.60;99.90
51884;DHT22;37915;53.254;6.598;2022-11-28T05:30:03;7.30;99.90
51884;DHT22;37915;53.254;6.598;2022-11-28T05:32:29;6.60;99.90
51884;DHT22;37915;53.254;6.598;2022-11-28T05:34:56;6.70;99.90
51884;DHT22;37915;53.254;6.598;2022-11-28T05:37:21;6.80;99.90
51884;DHT22;37915;53.254;6.598;2022-11-28T05:39:47;6.80;99.90
51884;DHT22;37915;53.254;6.598;2022-11-28T05:42:12;6.80;99.90
51884;DHT22;37915;53.254;6.598;2022-11-28T05:44:38;6.80;99.90
51884;DHT22;37915;53.254;6.598;2022-11-28T05:47:04;6.80;99.90
51884;DHT22;37915;53.254;6.598;2022-11-28T05:49:29;6.80;99.90
51884;DHT22;37915;53.254;6.598;2022-11-28T05:51:55;7.00;99.90
51884;DHT22;37915;53.254;6.598;2022-11-28T05:54:21;6.90;99.90
51884;DHT22;37915;53.254;6.598;2022-11-28T05:56:47;6.90;99.90
51884;DHT22;37915;53.254;6.598;2022-11-28T05:59:13;7.00;99.90
51884;DHT22;37915;53.254;6.598;2022-11-28T06:01:38;6.90;99.90
51884;DHT22;37915;53.254;6.598;2022-11-28T06:04:04;6.90;99.90
51884;DHT22;37915;53.254;6.598;2022-11-28T06:06:33;6.90;99.90
51884;DHT22;37915;53.254;6.598;2022-11-28T06:08:59;6.90;99.90
51884;DHT22;37915;53.254;6.598;2022-11-28T06:11:27;7.50;99.90
51884;DHT22;37915;53.254;6.598;2022-11-28T06:13:53;7.30;99.90
51884;DHT22;37915;53.254;6.598;2022-11-28T06:16:21;7.00;99.90
51884;DHT22;37915;53.254;6.598;2022-11-28T06:18:52;7.00;99.90
51884;DHT22;37915;53.254;6.598;2022-11-28T06:21:18;7.40;99.90
51884;DHT22;37915;53.254;6.598;2022-11-28T06:23:44;7.60;99.90
51884;DHT22;37915;53.254;6.598;2022-11-28T06:26:13;7.00;99.90
51884;DHT22;37915;53.254;6.598;2022-11-28T06:28:39;7.00;99.90
51884;DHT22;37915;53.254;6.598;2022-11-28T06:31:17;7.00;99.90
51884;DHT22;37915;53.254;6.598;2022-11-28T06:33:43;8.10;99.90
51884;DHT22;37915;53.254;6.598;2022-11-28T06:36:14;7.20;99.90
51884;DHT22;37915;53.254;6.598;2022-11-28T06:38:40;7.10;99.90
51884;DHT22;37915;53.254;6.598;2022-11-28T06:41:10;7.10;99.90
51884;DHT22;37915;53.254;6.598;2022-11-28T06:43:36;8.20;99.90
51884;DHT22;37915;53.254;6.598;2022-11-28T06:46:02;7.10;99.90
51884;DHT22;37915;53.254;6.598;2022-11-28T06:48:28;7.10;99.90
51884;DHT22;37915;53.254;6.598;2022-11-28T06:50:59;7.30;99.90
51884;DHT22;37915;53.254;6.598;2022-11-28T06:53:25;7.40;99.90
51884;DHT22;37915;53.254;6.598;2022-11-28T06:55:51;7.20;99.90
51884;DHT22;37915;53.254;6.598;2022-11-28T06:58:17;7.20;99.90
51884;DHT22;37915;53.254;6.598;2022-11-28T07:00:42;7.20;99.90
51884;DHT22;37915;53.254;6.598;2022-11-28T07:03:09;8.00;99.90
51884;DHT22;37915;53.254;6.598;2022-11-28T07:05:37;7.10;99.90
51884;DHT22;37915;53.254;6.598;2022-11-28T07:08:03;7.20;99.90
51884;DHT22;37915;53.254;6.598;2022-11-28T07:10:28;7.20;99.90
51884;DHT22;37915;53.254;6.598;2022-11-28T07:12:59;7.20;99.90
51884;DHT22;37915;53.254;6.598;2022-11-28T07:15:26;7.60;99.90
51884;DHT22;37915;53.254;6.598;2022-11-28T07:17:52;7.20;99.90
51884;DHT22;37915;53.254;6.598;2022-11-28T07:20:18;7.20;99.90
51884;DHT22;37915;53.254;6.598;2022-11-28T07:22:44;7.60;99.90
51884;DHT22;37915;53.254;6.598;2022-11-28T07:25:11;7.20;99.90
51884;DHT22;37915;53.254;6.598;2022-11-28T07:27:39;7.50;99.90
51884;DHT22;37915;53.254;6.598;2022-11-28T07:30:06;7.20;99.90
51884;DHT22;37915;53.254;6.598;2022-11-28T07:32:31;7.30;99.90
51884;DHT22;37915;53.254;6.598;2022-11-28T07:34:57;7.20;99.90
51884;DHT22;37915;53.254;6.598;2022-11-28T07:37:23;7.20;99.90
51884;DHT22;37915;53.254;6.598;2022-11-28T07:39:48;7.30;99.90
51884;DHT22;37915;53.254;6.598;2022-11-28T07:42:14;7.20;99.90
51884;DHT22;37915;53.254;6.598;2022-11-28T07:44:40;7.30;99.90
51884;DHT22;37915;53.254;6.598;2022-11-28T07:47:05;7.30;99.90
51884;DHT22;37915;53.254;6.598;2022-11-28T07:49:31;8.00;99.90
51884;DHT22;37915;53.254;6.598;2022-11-28T07:51:57;7.30;99.90
51884;DHT22;37915;53.254;6.598;2022-11-28T07:54:23;7.30;99.90
51884;DHT22;37915;53.254;6.598;2022-11-28T07:56:48;7.20;99.90
51884;DHT22;37915;53.254;6.598;2022-11-28T07:59:14;7.20;99.90
51884;DHT22;37915;53.254;6.598;2022-11-28T08:01:40;7.30;99.90
51884;DHT22;37915;53.254;6.598;2022-11-28T08:04:07;7.30;99.90
51884;DHT22;37915;53.254;6.598;2022-11-28T08:06:38;7.30;99.90
51884;DHT22;37915;53.254;6.598;2022-11-28T08:09:05;7.30;99.90
51884;DHT22;37915;53.254;6.598;2022-11-28T08:11:31;7.80;99.90
51884;DHT22;37915;53.254;6.598;2022-11-28T08:13:57;7.40;99.90
51884;DHT22;37915;53.254;6.598;2022-11-28T08:16:25;7.30;99.90
51884;DHT22;37915;53.254;6.598;2022-11-28T08:18:51;7.30;99.90
51884;DHT22;37915;53.254;6.598;2022-11-28T08:21:20;7.50;99.90
51884;DHT22;37915;53.254;6.598;2022-11-28T08:23:48;7.30;99.90
51884;DHT22;37915;53.254;6.598;2022-11-28T08:26:18;7.40;99.90
51884;DHT22;37915;53.254;6.598;2022-11-28T08:28:45;7.30;99.90
51884;DHT22;37915;53.254;6.598;2022-11-28T08:31:16;7.30;99.90
51884;DHT22;37915;53.254;6.598;2022-11-28T08:33:43;7.40;99.90
51884;DHT22;37915;53.254;6.598;2022-11-28T08:36:10;7.40;99.90
51884;DHT22;37915;53.254;6.598;2022-11-28T08:38:37;7.30;99.90
51884;DHT22;37915;53.254;6.598;2022-11-28T08:41:05;7.40;99.90
51884;DHT22;37915;53.254;6.598;2022-11-28T08:43:33;7.40;99.90
51884;DHT22;37915;53.254;6.598;2022-11-28T08:45:58;8.10;99.90
51884;DHT22;37915;53.254;6.598;2022-11-28T08:48:24;7.60;99.90
51884;DHT22;37915;53.254;6.598;2022-11-28T08:50:50;7.40;99.90
51884;DHT22;37915;53.254;6.598;2022-11-28T08:53:16;7.60;99.90
51884;DHT22;37915;53.254;6.598;2022-11-28T08:55:43;7.50;99.90
51884;DHT22;37915;53.254;6.598;2022-11-28T08:58:12;7.40;99.90
51884;DHT22;37915;53.254;6.598;2022-11-28T09:00:38;7.40;99.90
51884;DHT22;37915;53.254;6.598;2022-11-28T09:03:04;7.50;99.90
51884;DHT22;37915;53.254;6.598;2022-11-28T09:05:30;7.40;99.90
51884;DHT22;37915;53.254;6.598;2022-11-28T09:07:56;7.40;99.90
51884;DHT22;37915;53.254;6.598;2022-11-28T09:10:23;7.50;99.90
51884;DHT22;37915;53.254;6.598;2022-11-28T09:12:50;7.50;99.90
51884;DHT22;37915;53.254;6.598;2022-11-28T09:15:16;7.50;99.90
51884;DHT22;37915;53.254;6.598;2022-11-28T09:17:44;7.50;99.90
51884;DHT22;37915;53.254;6.598;2022-11-28T09:20:09;7.50;99.90
51884;DHT22;37915;53.254;6.598;2022-11-28T09:22:35;7.50;99.90
51884;DHT22;37915;53.254;6.598;2022-11-28T09:25:01;7.50;99.90
51884;DHT22;37915;53.254;6.598;2022-11-28T09:27:26;7.50;99.90
51884;DHT22;37915;53.254;6.598;2022-11-28T09:29:52;7.50;99.90
51884;DHT22;37915;53.254;6.598;2022-11-28T09:32:18;7.60;99.90
51884;DHT22;37915;53.254;6.598;2022-11-28T09:34:43;7.90;99.90
51884;DHT22;37915;53.254;6.598;2022-11-28T09:37:09;7.50;99.90
51884;DHT22;37915;53.254;6.598;2022-11-28T09:39:35;7.50;99.90
51884;DHT22;37915;53.254;6.598;2022-11-28T09:44:43;7.60;99.90
51884;DHT22;37915;53.254;6.598;2022-11-28T09:47:18;7.60;99.90
51884;DHT22;37915;53.254;6.598;2022-11-28T09:49:49;7.60;99.90
51884;DHT22;37915;53.254;6.598;2022-11-28T09:55:15;7.60;99.90
51884;DHT22;37915;53.254;6.598;2022-11-28T09:57:46;7.60;99.90
51884;DHT22;37915;53.254;6.598;2022-11-28T10:00:33;7.60;99.90
51884;DHT22;37915;53.254;6.598;2022-11-28T10:09:24;7.70;99.90
51884;DHT22;37915;53.254;6.598;2022-11-28T10:15:14;8.30;99.90
51884;DHT22;37915;53.254;6.598;2022-11-28T10:20:42;7.70;99.90
51884;DHT22;37915;53.254;6.598;2022-11-28T10:23:22;7.70;99.90
51884;DHT22;37915;53.254;6.598;2022-11-28T10:25:50;7.70;99.90
51884;DHT22;37915;53.254;6.598;2022-11-28T10:28:36;7.70;99.90
51884;DHT22;37915;53.254;6.598;2022-11-28T10:31:11;7.70;99.90
51884;DHT22;37915;53.254;6.598;2022-11-28T10:39:41;7.70;99.90
51884;DHT22;37915;53.254;6.598;2022-11-28T10:42:39;7.80;99.90
51884;DHT22;37915;53.254;6.598;2022-11-28T10:45:32;7.70;99.90
51884;DHT22;37915;53.254;6.598;2022-11-28T10:53:51;7.80;99.90
51884;DHT22;37915;53.254;6.598;2022-11-28T10:58:57;7.80;99.90
51884;DHT22;37915;53.254;6.598;2022-11-28T11:01:28;7.80;99.90
51884;DHT22;37915;53.254;6.598;2022-11-28T11:03:56;7.90;99.90
51884;DHT22;37915;53.254;6.598;2022-11-28T11:06:24;7.90;99.90
51884;DHT22;37915;53.254;6.598;2022-11-28T11:08:50;7.90;99.90
51884;DHT22;37915;53.254;6.598;2022-11-28T11:11:32;7.90;99.90
51884;DHT22;37915;53.254;6.598;2022-11-28T11:14:03;7.90;99.90
51884;DHT22;37915;53.254;6.598;2022-11-28T11:16:52;8.00;99.90
51884;DHT22;37915;53.254;6.598;2022-11-28T11:24:37;8.00;99.90
51884;DHT22;37915;53.254;6.598;2022-11-28T11:27:15;8.10;99.90
51884;DHT22;37915;53.254;6.598;2022-11-28T11:29:42;8.20;99.90
51884;DHT22;37915;53.254;6.598;2022-11-28T11:32:25;8.10;99.90
51884;DHT22;37915;53.254;6.598;2022-11-28T11:34:52;8.10;99.90
51884;DHT22;37915;53.254;6.598;2022-11-28T11:37:36;8.40;99.90
51884;DHT22;37915;53.254;6.598;2022-11-28T11:42:56;8.20;99.90
51884;DHT22;37915;53.254;6.598;2022-11-28T11:45:32;8.20;99.90
51884;DHT22;37915;53.254;6.598;2022-11-28T11:47:59;8.20;99.90
51884;DHT22;37915;53.254;6.598;2022-11-28T11:50:28;8.20;99.90
51884;DHT22;37915;53.254;6.598;2022-11-28T11:53:01;8.20;99.90
51884;DHT22;37915;53.254;6.598;2022-11-28T11:55:28;8.30;99.90
51884;DHT22;37915;53.254;6.598;2022-11-28T11:57:56;8.30;99.90
51884;DHT22;37915;53.254;6.598;2022-11-28T12:00:36;8.30;99.90
51884;DHT22;37915;53.254;6.598;2022-11-28T12:03:37;8.30;99.90
51884;DHT22;37915;53.254;6.598;2022-11-28T12:06:15;8.40;99.90
51884;DHT22;37915;53.254;6.598;2022-11-28T12:11:52;8.40;99.90
51884;DHT22;37915;53.254;6.598;2022-11-28T12:14:34;8.70;99.90
51884;DHT22;37915;53.254;6.598;2022-11-28T12:17:18;8.40;99.90
51884;DHT22;37915;53.254;6.598;2022-11-28T12:25:14;8.40;99.90
51884;DHT22;37915;53.254;6.598;2022-11-28T12:30:57;8.60;99.90
51884;DHT22;37915;53.254;6.598;2022-11-28T12:36:05;8.40;99.90
51884;DHT22;37915;53.254;6.598;2022-11-28T12:38:48;8.50;99.90
51884;DHT22;37915;53.254;6.598;2022-11-28T12:41:38;8.50;99.90
51884;DHT22;37915;53.254;6.598;2022-11-28T12:49:27;8.50;99.90
51884;DHT22;37915;53.254;6.598;2022-11-28T12:52:22;8.60;99.90
51884;DHT22;37915;53.254;6.598;2022-11-28T12:57:46;8.60;99.90
51884;DHT22;37915;53.254;6.598;2022-11-28T13:00:19;8.70;99.90
51884;DHT22;37915;53.254;6.598;2022-11-28T13:08:18;8.70;99.90
51884;DHT22;37915;53.254;6.598;2022-11-28T13:21:28;8.60;99.90
51884;DHT22;37915;53.254;6.598;2022-11-28T13:24:23;8.70;99.90
51884;DHT22;37915;53.254;6.598;2022-11-28T13:32:50;8.70;99.90
51884;DHT22;37915;53.254;6.598;2022-11-28T13:35:19;8.70;99.90
51884;DHT22;37915;53.254;6.598;2022-11-28T13:40:49;8.60;99.90
51884;DHT22;37915;53.254;6.598;2022-11-28T13:46:10;8.70;99.90
51884;DHT22;37915;53.254;6.598;2022-11-28T13:51:15;8.60;99.90
51884;DHT22;37915;53.254;6.598;2022-11-28T13:53:44;8.60;99.90
51884;DHT22;37915;53.254;6.598;2022-11-28T14:01:43;8.70;99.90
51884;DHT22;37915;53.254;6.598;2022-11-28T14:04:14;8.60;99.90
51884;DHT22;37915;53.254;6.598;2022-11-28T14:06:47;8.60;99.90
51884;DHT22;37915;53.254;6.598;2022-11-28T14:14:58;8.60;99.90
51884;DHT22;37915;53.254;6.598;2022-11-28T14:20:26;8.60;99.90
51884;DHT22;37915;53.254;6.598;2022-11-28T14:25:44;8.60;99.90
51884;DHT22;37915;53.254;6.598;2022-11-28T14:31:15;8.60;99.90
51884;DHT22;37915;53.254;6.598;2022-11-28T14:33:45;8.60;99.90
51884;DHT22;37915;53.254;6.598;2022-11-28T14:36:28;8.50;99.90
51884;DHT22;37915;53.254;6.598;2022-11-28T14:47:14;8.50;99.90
51884;DHT22;37915;53.254;6.598;2022-11-28T14:49:39;8.50;99.90
51884;DHT22;37915;53.254;6.598;2022-11-28T14:52:17;8.50;99.90
51884;DHT22;37915;53.254;6.598;2022-11-28T14:54:44;8.50;99.90
51884;DHT22;37915;53.254;6.598;2022-11-28T14:57:32;8.50;99.90
51884;DHT22;37915;53.254;6.598;2022-11-28T15:05:45;8.50;99.90
51884;DHT22;37915;53.254;6.598;2022-11-28T15:13:30;8.40;99.90
51884;DHT22;37915;53.254;6.598;2022-11-28T15:15:56;8.40;99.90
51884;DHT22;37915;53.254;6.598;2022-11-28T15:18:23;8.50;99.90
51884;DHT22;37915;53.254;6.598;2022-11-28T15:20:54;8.40;99.90
51884;DHT22;37915;53.254;6.598;2022-11-28T15:23:31;8.40;99.90
51884;DHT22;37915;53.254;6.598;2022-11-28T15:25:58;8.40;99.90
51884;DHT22;37915;53.254;6.598;2022-11-28T15:28:25;8.40;99.90
51884;DHT22;37915;53.254;6.598;2022-11-28T15:30:56;8.40;99.90
51884;DHT22;37915;53.254;6.598;2022-11-28T15:33:24;8.40;99.90
51884;DHT22;37915;53.254;6.598;2022-11-28T15:36:00;8.40;99.90
51884;DHT22;37915;53.254;6.598;2022-11-28T15:38:28;8.40;99.90
51884;DHT22;37915;53.254;6.598;2022-11-28T15:40:55;8.40;99.90
51884;DHT22;37915;53.254;6.598;2022-11-28T15:43:22;8.40;99.90
51884;DHT22;37915;53.254;6.598;2022-11-28T15:45:53;8.40;99.90
51884;DHT22;37915;53.254;6.598;2022-11-28T15:48:51;8.40;99.90
51884;DHT22;37915;53.254;6.598;2022-11-28T15:51:28;8.40;99.90
51884;DHT22;37915;53.254;6.598;2022-11-28T15:53:55;8.40;99.90
51884;DHT22;37915;53.254;6.598;2022-11-28T15:56:21;8.40;99.90
51884;DHT22;37915;53.254;6.598;2022-11-28T15:58:47;8.40;99.90
51884;DHT22;37915;53.254;6.598;2022-11-28T16:01:26;8.40;99.90
51884;DHT22;37915;53.254;6.598;2022-11-28T16:06:18;8.50;99.90
51884;DHT22;37915;53.254;6.598;2022-11-28T16:11:48;8.40;99.90
51884;DHT22;37915;53.254;6.598;2022-11-28T16:14:20;8.40;99.90
51884;DHT22;37915;53.254;6.598;2022-11-28T16:16:48;8.40;99.90
51884;DHT22;37915;53.254;6.598;2022-11-28T16:19:27;8.30;99.90
51884;DHT22;37915;53.254;6.598;2022-11-28T16:22:01;8.40;99.90
51884;DHT22;37915;53.254;6.598;2022-11-28T16:24:43;8.40;99.90
51884;DHT22;37915;53.254;6.598;2022-11-28T16:29:51;8.40;99.90
51884;DHT22;37915;53.254;6.598;2022-11-28T16:32:37;8.40;99.90
51884;DHT22;37915;53.254;6.598;2022-11-28T16:35:04;8.40;99.90
51884;DHT22;37915;53.254;6.598;2022-11-28T16:37:31;8.30;99.90
51884;DHT22;37915;53.254;6.598;2022-11-28T16:42:37;8.40;99.90
51884;DHT22;37915;53.254;6.598;2022-11-28T16:45:08;8.50;99.90
51884;DHT22;37915;53.254;6.598;2022-11-28T16:47:34;8.40;99.90
51884;DHT22;37915;53.254;6.598;2022-11-28T16:52:43;8.40;99.90
51884;DHT22;37915;53.254;6.598;2022-11-28T17:00:24;8.40;99.90
51884;DHT22;37915;53.254;6.598;2022-11-28T17:02:50;8.30;99.90
51884;DHT22;37915;53.254;6.598;2022-11-28T17:05:17;8.40;99.90
51884;DHT22;37915;53.254;6.598;2022-11-28T17:07:43;8.80;99.90
51884;DHT22;37915;53.254;6.598;2022-11-28T17:10:12;8.40;99.90
51884;DHT22;37915;53.254;6.598;2022-11-28T17:12:39;8.40;99.90
51884;DHT22;37915;53.254;6.598;2022-11-28T17:15:08;8.40;99.90
51884;DHT22;37915;53.254;6.598;2022-11-28T17:17:36;8.40;99.90
51884;DHT22;37915;53.254;6.598;2022-11-28T17:20:01;8.40;99.90
51884;DHT22;37915;53.254;6.598;2022-11-28T17:22:36;8.40;99.90
51884;DHT22;37915;53.254;6.598;2022-11-28T17:25:03;8.40;99.90
51884;DHT22;37915;53.254;6.598;2022-11-28T17:27:30;8.40;99.90
51884;DHT22;37915;53.254;6.598;2022-11-28T17:29:56;8.40;99.90
51884;DHT22;37915;53.254;6.598;2022-11-28T17:32:21;8.40;99.90
51884;DHT22;37915;53.254;6.598;2022-11-28T17:34:47;8.50;99.90
51884;DHT22;37915;53.254;6.598;2022-11-28T17:37:12;8.40;99.90
51884;DHT22;37915;53.254;6.598;2022-11-28T17:39:38;8.40;99.90
51884;DHT22;37915;53.254;6.598;2022-11-28T17:42:04;8.40;99.90
51884;DHT22;37915;53.254;6.598;2022-11-28T17:44:32;8.40;99.90
51884;DHT22;37915;53.254;6.598;2022-11-28T17:47:00;8.40;99.90
51884;DHT22;37915;53.254;6.598;2022-11-28T17:49:26;8.40;99.90
51884;DHT22;37915;53.254;6.598;2022-11-28T17:51:54;8.40;99.90
51884;DHT22;37915;53.254;6.598;2022-11-28T17:54:24;8.40;99.90
51884;DHT22;37915;53.254;6.598;2022-11-28T17:56:51;8.40;99.90
51884;DHT22;37915;53.254;6.598;2022-11-28T17:59:19;8.40;99.90
51884;DHT22;37915;53.254;6.598;2022-11-28T18:01:45;8.40;99.90
51884;DHT22;37915;53.254;6.598;2022-11-28T18:04:11;8.40;99.90
51884;DHT22;37915;53.254;6.598;2022-11-28T18:06:37;8.40;99.90
51884;DHT22;37915;53.254;6.598;2022-11-28T18:09:04;8.50;99.90
51884;DHT22;37915;53.254;6.598;2022-11-28T18:11:30;8.40;99.90
51884;DHT22;37915;53.254;6.598;2022-11-28T18:13:57;8.40;99.90
51884;DHT22;37915;53.254;6.598;2022-11-28T18:16:24;8.40;99.90
51884;DHT22;37915;53.254;6.598;2022-11-28T18:18:50;8.20;99.90
51884;DHT22;37915;53.254;6.598;2022-11-28T18:21:16;8.40;99.90
51884;DHT22;37915;53.254;6.598;2022-11-28T18:23:44;8.40;99.90
51884;DHT22;37915;53.254;6.598;2022-11-28T18:26:13;8.40;99.90
51884;DHT22;37915;53.254;6.598;2022-11-28T18:28:40;8.40;99.90
51884;DHT22;37915;53.254;6.598;2022-11-28T18:31:21;8.30;99.90
51884;DHT22;37915;53.254;6.598;2022-11-28T18:33:47;8.30;99.90
51884;DHT22;37915;53.254;6.598;2022-11-28T18:36:22;8.40;99.90
51884;DHT22;37915;53.254;6.598;2022-11-28T18:38:52;8.40;99.90
51884;DHT22;37915;53.254;6.598;2022-11-28T18:41:18;8.40;99.90
51884;DHT22;37915;53.254;6.598;2022-11-28T18:43:47;8.40;99.90
51884;DHT22;37915;53.254;6.598;2022-11-28T18:46:14;8.40;99.90
51884;DHT22;37915;53.254;6.598;2022-11-28T18:48:42;8.40;99.90
51884;DHT22;37915;53.254;6.598;2022-11-28T18:51:21;8.30;99.90
51884;DHT22;37915;53.254;6.598;2022-11-28T18:53:48;8.80;99.90
51884;DHT22;37915;53.254;6.598;2022-11-28T18:56:14;8.40;99.90
51884;DHT22;37915;53.254;6.598;2022-11-28T18:58:45;8.40;99.90
51884;DHT22;37915;53.254;6.598;2022-11-28T19:01:21;8.30;99.90
51884;DHT22;37915;53.254;6.598;2022-11-28T19:03:49;8.40;99.90
51884;DHT22;37915;53.254;6.598;2022-11-28T19:06:19;8.30;99.90
51884;DHT22;37915;53.254;6.598;2022-11-28T19:08:52;8.40;99.90
51884;DHT22;37915;53.254;6.598;2022-11-28T19:11:18;8.40;99.90
51884;DHT22;37915;53.254;6.598;2022-11-28T19:13:45;8.40;99.90
51884;DHT22;37915;53.254;6.598;2022-11-28T19:16:16;8.40;99.90
51884;DHT22;37915;53.254;6.598;2022-11-28T19:18:42;8.40;99.90
51884;DHT22;37915;53.254;6.598;2022-11-28T19:21:16;8.40;99.90
51884;DHT22;37915;53.254;6.598;2022-11-28T19:23:42;8.40;99.90